Time;durP1;ratioP1;P1;durP2;ratioP2;P2;SDS_P1;SDS_P2;PMS_P1;PMS_P2;Temp;Humidity;BMP_temperature;BMP_pressure;BME280_temperature;BME280_humidity;BME280_pressure;Samples;Min_cycle;Max_cycle;Signal;HPM_P1;HPM_P2
2023/03/09 00:01:37;;;;;;;41.23;24.73;;;3.10;99.90;;;;;;5092780;28;20212;-61
2023/03/09 00:04:03;;;;;;;42.73;25.63;;;3.00;99.90;;;;;;5092692;28;20185;-61
2023/03/09 00:06:29;;;;;;;41.53;24.37;;;3.00;99.90;;;;;;5092593;28;20540;-61
2023/03/09 00:08:55;;;;;;;39.70;24.17;;;3.00;99.90;;;;;;5092659;28;20199;-61
2023/03/09 00:11:21;;;;;;;39.72;24.48;;;3.00;99.90;;;;;;5092971;28;20196;-61
2023/03/09 00:13:48;;;;;;;36.73;22.30;;;3.00;99.90;;;;;;5096359;28;20177;-61
2023/03/09 00:16:23;;;;;;;35.33;22.37;;;3.00;99.90;;;;;;5096273;28;20185;-61
2023/03/09 00:18:51;;;;;;;32.90;19.20;;;3.10;99.90;;;;;;5096176;28;20230;-61
2023/03/09 00:21:36;;;;;;;34.10;20.07;;;3.00;99.90;;;;;;5095953;28;20216;-61
2023/03/09 00:24:09;;;;;;;33.07;20.40;;;3.10;99.90;;;;;;5095902;28;20229;-61
2023/03/09 00:26:36;;;;;;;37.20;22.43;;;3.20;99.90;;;;;;5096258;28;20577;-61
2023/03/09 00:29:03;;;;;;;35.78;21.83;;;3.20;99.90;;;;;;5095858;28;20167;-61
2023/03/09 00:31:28;;;;;;;37.10;22.30;;;3.40;99.90;;;;;;5095992;28;20268;-61
2023/03/09 00:33:54;;;;;;;36.13;21.03;;;3.40;99.90;;;;;;5095689;28;20268;-61
2023/03/09 00:36:20;;;;;;;38.33;23.77;;;3.30;99.90;;;;;;5095645;28;20185;-61
2023/03/09 00:38:53;;;;;;;38.47;22.93;;;3.30;99.90;;;;;;5095797;28;20178;-61
2023/03/09 00:41:21;;;;;;;40.37;24.57;;;3.30;99.90;;;;;;5095893;28;20220;-61
2023/03/09 00:43:47;;;;;;;37.13;23.53;;;3.30;99.90;;;;;;5095764;28;20199;-61
2023/03/09 00:46:14;;;;;;;40.15;23.35;;;3.30;99.90;;;;;;5095546;28;20169;-61
2023/03/09 00:48:40;;;;;;;38.13;23.83;;;3.30;99.90;;;;;;5095485;28;20173;-61
2023/03/09 00:51:06;;;;;;;39.37;24.27;;;3.30;99.90;;;;;;5095380;28;20181;-61
2023/03/09 00:53:32;;;;;;;40.53;32.60;;;3.40;99.90;;;;;;5095650;28;20185;-61
2023/03/09 00:56:09;;;;;;;41.50;32.67;;;3.50;99.90;;;;;;5095332;28;20175;-61
2023/03/09 00:58:35;;;;;;;40.60;25.63;;;3.50;99.90;;;;;;5095351;28;20164;-60
2023/03/09 01:01:05;;;;;;;42.23;26.23;;;3.40;99.90;;;;;;5095180;28;20291;-61
2023/03/09 01:03:31;;;;;;;39.50;24.42;;;3.30;99.90;;;;;;5095200;28;20200;-60
2023/03/09 01:05:59;;;;;;;41.42;25.45;;;3.30;99.90;;;;;;5094191;28;20603;-61
2023/03/09 01:08:24;;;;;;;41.65;25.65;;;3.30;99.90;;;;;;5095305;28;20189;-61
2023/03/09 01:10:50;;;;;;;37.72;23.33;;;3.30;99.90;;;;;;5095241;28;20186;-60
2023/03/09 01:13:16;;;;;;;40.95;24.35;;;3.30;99.90;;;;;;5094935;28;20173;-61
2023/03/09 01:15:42;;;;;;;37.33;23.45;;;3.20;99.90;;;;;;5094968;28;20578;-61
2023/03/09 01:18:07;;;;;;;36.45;24.15;;;3.30;99.90;;;;;;5094767;28;20227;-61
2023/03/09 01:20:33;;;;;;;37.67;24.80;;;3.40;99.90;;;;;;5094985;28;20545;-61
2023/03/09 01:22:59;;;;;;;38.22;24.38;;;3.30;99.90;;;;;;5093815;28;20331;-61
2023/03/09 01:25:24;;;;;;;38.72;24.70;;;3.30;99.90;;;;;;5094859;28;20173;-60
2023/03/09 01:27:51;;;;;;;38.13;24.35;;;3.30;99.90;;;;;;5095038;28;20213;-61
2023/03/09 01:30:17;;;;;;;37.97;23.15;;;3.40;99.90;;;;;;5094697;28;20309;-61
2023/03/09 01:32:43;;;;;;;41.17;25.60;;;3.40;99.90;;;;;;5094519;28;20265;-61
2023/03/09 01:35:08;;;;;;;41.15;26.42;;;3.20;99.90;;;;;;5094602;28;20671;-61
2023/03/09 01:37:34;;;;;;;45.45;26.20;;;3.30;99.90;;;;;;5094739;28;20636;-61
2023/03/09 01:40:00;;;;;;;42.83;25.20;;;3.30;99.90;;;;;;5094630;28;20666;-60
2023/03/09 01:42:26;;;;;;;41.60;24.65;;;3.20;99.90;;;;;;5094475;28;20751;-60
2023/03/09 01:45:10;;;;;;;44.35;26.83;;;3.20;99.90;;;;;;5094440;28;20212;-61
2023/03/09 01:47:36;;;;;;;58.83;41.07;;;3.20;99.90;;;;;;5094546;28;20176;-61
2023/03/09 01:50:02;;;;;;;51.43;29.70;;;3.10;99.90;;;;;;5094743;28;20661;-61
2023/03/09 01:52:32;;;;;;;47.90;27.23;;;2.90;99.90;;;;;;5094365;28;20658;-61
2023/03/09 01:55:07;;;;;;;49.20;28.02;;;2.90;99.90;;;;;;5094375;28;20174;-61
2023/03/09 01:57:34;;;;;;;48.23;26.40;;;3.00;99.90;;;;;;5094401;28;20580;-61
2023/03/09 02:00:12;;;;;;;49.93;27.63;;;3.10;99.90;;;;;;5093971;28;20201;-61
2023/03/09 02:02:44;;;;;;;48.93;27.60;;;3.20;99.90;;;;;;5094353;28;20212;-60
2023/03/09 02:05:14;;;;;;;47.37;26.13;;;3.00;99.90;;;;;;5094097;28;20170;-61
2023/03/09 02:07:43;;;;;;;49.33;27.27;;;3.00;99.90;;;;;;5093928;28;20223;-61
2023/03/09 02:10:22;;;;;;;49.17;27.13;;;2.90;99.90;;;;;;5093977;28;20220;-60
2023/03/09 02:12:53;;;;;;;41.13;25.17;;;2.90;99.90;;;;;;5094138;28;20168;-61
2023/03/09 02:15:20;;;;;;;45.10;25.37;;;2.80;99.90;;;;;;5093964;28;20169;-60
2023/03/09 02:17:46;;;;;;;44.93;25.97;;;2.80;99.90;;;;;;5093996;28;20178;-60
2023/03/09 02:20:27;;;;;;;45.87;26.93;;;2.80;99.90;;;;;;5093835;28;20235;-60
2023/03/09 02:22:52;;;;;;;43.27;26.33;;;2.90;99.90;;;;;;5093552;28;20724;-61
2023/03/09 02:25:47;;;;;;;47.40;26.97;;;2.90;99.90;;;;;;5093792;28;20177;-61
2023/03/09 02:28:13;;;;;;;47.53;26.90;;;2.90;99.90;;;;;;5093374;28;20181;-60
2023/03/09 02:30:41;;;;;;;42.77;25.70;;;2.90;99.90;;;;;;5092456;28;20252;-61
2023/03/09 02:33:21;;;;;;;41.17;25.33;;;2.90;99.90;;;;;;5093460;28;20169;-60
2023/03/09 02:35:46;;;;;;;37.73;22.80;;;3.10;99.90;;;;;;5093791;28;20181;-60
2023/03/09 02:38:13;;;;;;;42.23;24.77;;;3.20;99.90;;;;;;5093619;28;20187;-61
2023/03/09 02:40:39;;;;;;;43.47;24.97;;;3.30;99.90;;;;;;5093468;28;20245;-61
2023/03/09 02:43:05;;;;;;;38.13;23.67;;;3.30;99.90;;;;;;5093472;28;20232;-61
2023/03/09 02:45:32;;;;;;;36.13;22.83;;;3.40;99.90;;;;;;5093252;28;20268;-61
2023/03/09 02:47:59;;;;;;;38.63;23.83;;;3.50;99.90;;;;;;5093180;28;20177;-61
2023/03/09 02:50:25;;;;;;;36.50;23.00;;;3.40;99.90;;;;;;5093372;28;20179;-61
2023/03/09 02:52:51;;;;;;;36.00;29.65;;;3.40;99.90;;;;;;5093159;28;20197;-61
2023/03/09 02:55:18;;;;;;;35.45;22.63;;;3.50;99.90;;;;;;5093371;28;20176;-61
2023/03/09 02:57:43;;;;;;;36.10;21.43;;;3.60;99.90;;;;;;5093429;28;20173;-61
2023/03/09 03:00:13;;;;;;;35.93;20.73;;;3.60;99.90;;;;;;5093030;28;20189;-61
2023/03/09 03:02:39;;;;;;;35.33;28.05;;;3.70;99.90;;;;;;5092959;28;20197;-61
2023/03/09 03:05:07;;;;;;;31.80;20.50;;;3.80;99.90;;;;;;5093268;28;20189;-61
2023/03/09 03:07:35;;;;;;;35.30;20.33;;;3.80;99.90;;;;;;5092950;28;20184;-61
2023/03/09 03:10:01;;;;;;;32.17;20.27;;;3.80;99.90;;;;;;5093111;28;20639;-61
2023/03/09 03:12:27;;;;;;;29.43;19.37;;;3.80;99.90;;;;;;5093051;28;20192;-62
2023/03/09 03:14:52;;;;;;;31.20;19.83;;;3.60;99.90;;;;;;5092949;28;20187;-61
2023/03/09 03:17:18;;;;;;;27.25;16.77;;;3.50;99.90;;;;;;5092944;28;20174;-65
2023/03/09 03:19:44;;;;;;;29.45;18.45;;;3.40;99.90;;;;;;5093380;28;20181;-61
2023/03/09 03:22:09;;;;;;;27.97;17.90;;;3.40;99.90;;;;;;5092682;28;20750;-61
2023/03/09 03:24:39;;;;;;;31.07;19.40;;;3.30;99.90;;;;;;5093001;28;20651;-61
2023/03/09 03:27:05;;;;;;;26.27;18.23;;;3.20;99.90;;;;;;5092938;28;20181;-61
2023/03/09 03:29:31;;;;;;;31.23;19.70;;;3.30;99.90;;;;;;5092843;28;20181;-61
2023/03/09 03:31:57;;;;;;;28.47;19.63;;;3.20;99.90;;;;;;5093054;28;20189;-61
2023/03/09 03:34:23;;;;;;;29.08;19.38;;;3.20;99.90;;;;;;5093072;28;20672;-61
2023/03/09 03:36:49;;;;;;;29.33;19.00;;;3.20;99.90;;;;;;5093046;28;20175;-61
2023/03/09 03:39:14;;;;;;;27.80;18.67;;;3.40;99.90;;;;;;5092972;28;20254;-60
2023/03/09 03:41:40;;;;;;;29.27;19.00;;;3.40;99.90;;;;;;5092882;28;20771;-61
2023/03/09 03:44:05;;;;;;;30.48;25.15;;;3.40;99.90;;;;;;5092703;28;20182;-61
2023/03/09 03:46:31;;;;;;;30.10;19.20;;;3.40;99.90;;;;;;5093798;28;20181;-61
2023/03/09 03:48:57;;;;;;;27.60;18.43;;;3.30;99.90;;;;;;5096619;28;20184;-61
2023/03/09 03:51:23;;;;;;;29.90;18.88;;;3.20;99.90;;;;;;5096745;28;20177;-61
2023/03/09 03:53:49;;;;;;;31.77;20.30;;;3.20;99.90;;;;;;5096657;28;20170;-61
2023/03/09 03:56:14;;;;;;;31.00;18.17;;;3.30;99.90;;;;;;5096582;28;20643;-61
2023/03/09 03:58:40;;;;;;;29.43;18.83;;;3.40;99.90;;;;;;5096318;28;20204;-61
2023/03/09 04:01:06;;;;;;;28.97;18.27;;;3.20;99.90;;;;;;5096565;28;20209;-61
2023/03/09 04:03:32;;;;;;;30.33;18.67;;;3.20;99.90;;;;;;5096520;28;20189;-61
2023/03/09 04:05:58;;;;;;;32.20;20.02;;;3.20;99.90;;;;;;5096232;28;20172;-61
2023/03/09 04:08:23;;;;;;;27.37;18.37;;;3.10;99.90;;;;;;5096630;28;20279;-60
2023/03/09 04:10:49;;;;;;;30.45;19.30;;;3.00;99.90;;;;;;5096377;28;20220;-61
2023/03/09 04:13:14;;;;;;;31.50;20.20;;;3.10;99.90;;;;;;5096167;28;20174;-60
2023/03/09 04:15:40;;;;;;;30.93;20.10;;;3.10;99.90;;;;;;5096484;28;20181;-61
2023/03/09 04:18:06;;;;;;;33.40;20.43;;;3.20;99.90;;;;;;5096216;28;20177;-61
2023/03/09 04:20:32;;;;;;;35.80;21.80;;;3.30;99.90;;;;;;5095989;28;20547;-61
2023/03/09 04:22:57;;;;;;;34.37;21.93;;;3.30;99.90;;;;;;5095171;28;20233;-61
2023/03/09 04:25:23;;;;;;;34.00;22.02;;;3.30;99.90;;;;;;5095966;28;20204;-61
2023/03/09 04:27:49;;;;;;;31.08;21.17;;;3.30;99.90;;;;;;5095840;28;20635;-61
2023/03/09 04:30:20;;;;;;;32.87;19.80;;;3.40;99.90;;;;;;5095739;28;20209;-60
2023/03/09 04:32:46;;;;;;;33.65;20.10;;;3.50;99.90;;;;;;5095866;28;20189;-61
2023/03/09 04:35:12;;;;;;;37.22;27.52;;;3.60;99.90;;;;;;5095875;28;20185;-61
2023/03/09 04:37:38;;;;;;;35.03;21.20;;;3.50;99.90;;;;;;5095776;28;20674;-61
2023/03/09 04:40:05;;;;;;;36.77;21.10;;;3.50;99.90;;;;;;5095804;28;20177;-62
2023/03/09 04:42:31;;;;;;;31.13;19.13;;;3.40;99.90;;;;;;5095443;28;20236;-61
2023/03/09 04:44:57;;;;;;;27.93;18.60;;;3.40;99.90;;;;;;5094673;28;20528;-61
2023/03/09 04:47:22;;;;;;;30.47;25.27;;;3.40;99.90;;;;;;5095519;28;20256;-61
2023/03/09 04:49:49;;;;;;;28.55;18.70;;;3.40;99.90;;;;;;5094706;28;20671;-60
2023/03/09 04:52:15;;;;;;;30.10;18.92;;;3.30;99.90;;;;;;5095863;28;20181;-60
2023/03/09 04:54:40;;;;;;;32.27;19.80;;;3.30;99.90;;;;;;5095476;28;20247;-61
2023/03/09 04:57:06;;;;;;;32.15;20.10;;;3.30;99.90;;;;;;5095228;28;20182;-61
2023/03/09 04:59:32;;;;;;;29.75;19.75;;;3.30;99.90;;;;;;5095258;28;20222;-61
2023/03/09 05:01:58;;;;;;;28.23;17.88;;;3.30;99.90;;;;;;5095138;28;20296;-61
2023/03/09 05:04:24;;;;;;;31.58;18.67;;;3.20;99.90;;;;;;5095376;28;20177;-61
2023/03/09 05:06:50;;;;;;;31.90;25.80;;;3.10;99.90;;;;;;5095308;28;20248;-61
2023/03/09 05:09:17;;;;;;;32.63;26.67;;;3.30;99.90;;;;;;5095036;28;20322;-61
2023/03/09 05:11:42;;;;;;;29.57;18.97;;;3.20;99.90;;;;;;5094992;28;20188;-61
2023/03/09 05:14:08;;;;;;;30.60;19.27;;;3.20;99.90;;;;;;5095184;28;20181;-61
2023/03/09 05:16:34;;;;;;;32.13;19.63;;;3.30;99.90;;;;;;5095143;28;20179;-61
2023/03/09 05:19:00;;;;;;;32.72;20.90;;;3.40;99.90;;;;;;5095113;28;20274;-61
2023/03/09 05:21:25;;;;;;;35.80;20.95;;;3.40;99.90;;;;;;5095017;28;20236;-61
2023/03/09 05:23:51;;;;;;;32.80;21.17;;;3.40;99.90;;;;;;5094698;28;20236;-61
2023/03/09 05:26:17;;;;;;;36.17;20.98;;;3.30;99.90;;;;;;5094791;28;20272;-61
2023/03/09 05:28:43;;;;;;;30.43;19.20;;;3.40;99.90;;;;;;5094676;28;20208;-61
2023/03/09 05:31:13;;;;;;;32.47;20.00;;;3.50;99.90;;;;;;5094697;28;20239;-61
2023/03/09 05:33:39;;;;;;;30.75;19.50;;;3.60;99.90;;;;;;5094873;28;20640;-62
2023/03/09 05:36:16;;;;;;;32.40;20.40;;;3.50;99.90;;;;;;5094723;28;20264;-61
2023/03/09 05:38:42;;;;;;;33.57;21.33;;;3.50;99.90;;;;;;5094577;28;20238;-61
2023/03/09 05:41:07;;;;;;;33.27;19.67;;;3.50;99.90;;;;;;5094597;28;20232;-61
2023/03/09 05:43:35;;;;;;;30.63;19.43;;;3.40;99.90;;;;;;5094530;28;20256;-61
2023/03/09 05:46:02;;;;;;;36.40;21.73;;;3.40;99.90;;;;;;5094586;28;20181;-60
2023/03/09 05:48:28;;;;;;;37.30;21.83;;;3.30;99.90;;;;;;5094326;28;20705;-61
2023/03/09 05:50:54;;;;;;;39.83;23.23;;;3.30;99.90;;;;;;5094387;28;20181;-60
2023/03/09 05:53:19;;;;;;;34.57;21.23;;;3.50;99.90;;;;;;5094334;28;20169;-61
2023/03/09 05:55:52;;;;;;;34.33;22.53;;;3.60;99.90;;;;;;5094186;28;20539;-61
2023/03/09 05:58:18;;;;;;;33.53;21.50;;;3.60;99.90;;;;;;5094348;28;20177;-61
2023/03/09 06:00:44;;;;;;;35.43;21.40;;;3.50;99.90;;;;;;5094240;28;20192;-61
2023/03/09 06:03:09;;;;;;;35.83;28.87;;;3.40;99.90;;;;;;5094091;28;20234;-61
2023/03/09 06:05:35;;;;;;;33.50;21.85;;;3.40;99.90;;;;;;5093014;28;20181;-61
2023/03/09 06:08:01;;;;;;;32.45;21.15;;;3.40;99.90;;;;;;5094061;28;20253;-61
2023/03/09 06:10:27;;;;;;;33.80;21.33;;;3.40;99.90;;;;;;5093615;28;20288;-62
2023/03/09 06:12:53;;;;;;;30.42;19.08;;;3.40;99.90;;;;;;5092993;28;20595;-61
2023/03/09 06:15:18;;;;;;;32.47;26.67;;;3.40;99.90;;;;;;5094322;28;20541;-61
2023/03/09 06:17:44;;;;;;;33.03;21.83;;;3.50;99.90;;;;;;5092749;28;20181;-61
2023/03/09 06:20:10;;;;;;;35.63;21.93;;;3.50;99.90;;;;;;5093769;28;20224;-61
2023/03/09 06:22:36;;;;;;;35.00;21.40;;;3.40;99.90;;;;;;5093672;28;20228;-61
2023/03/09 06:25:02;;;;;;;36.95;23.05;;;3.50;99.90;;;;;;5094089;28;20538;-61
2023/03/09 06:27:28;;;;;;;45.45;33.90;;;3.40;99.90;;;;;;5093844;28;20540;-61
2023/03/09 06:29:54;;;;;;;38.00;23.40;;;3.50;99.90;;;;;;5094108;28;20184;-61
2023/03/09 06:32:20;;;;;;;32.83;21.27;;;3.60;99.90;;;;;;5093641;28;20180;-62
2023/03/09 06:34:46;;;;;;;37.15;28.88;;;3.60;99.90;;;;;;5093540;28;20196;-61
2023/03/09 06:37:11;;;;;;;36.22;23.08;;;3.60;99.90;;;;;;5093411;28;20169;-61
2023/03/09 06:39:37;;;;;;;37.25;23.25;;;3.70;99.90;;;;;;5093676;28;20189;-61
2023/03/09 06:42:03;;;;;;;38.03;23.38;;;3.70;99.90;;;;;;5093554;28;20217;-61
2023/03/09 06:44:29;;;;;;;36.65;21.42;;;3.60;99.90;;;;;;5093592;28;20181;-61
2023/03/09 06:46:54;;;;;;;34.00;22.45;;;3.70;99.90;;;;;;5093451;28;20567;-61
2023/03/09 06:49:20;;;;;;;33.63;21.90;;;3.70;99.90;;;;;;5093399;28;20188;-61
2023/03/09 06:51:46;;;;;;;34.53;22.35;;;3.70;99.90;;;;;;5093460;28;20189;-61
2023/03/09 06:54:14;;;;;;;36.53;23.15;;;3.70;99.90;;;;;;5093688;28;20238;-61
2023/03/09 06:56:39;;;;;;;33.65;21.33;;;3.70;99.90;;;;;;5093516;28;20176;-61
2023/03/09 06:59:05;;;;;;;39.63;22.67;;;3.70;99.90;;;;;;5093760;28;20181;-61
2023/03/09 07:01:31;;;;;;;34.15;20.52;;;3.80;99.90;;;;;;5091925;28;20209;-60
2023/03/09 07:03:57;;;;;;;33.83;21.73;;;3.80;99.90;;;;;;5092841;28;20208;-60
2023/03/09 07:06:23;;;;;;;35.35;21.38;;;3.80;99.90;;;;;;5092548;28;20209;-60
2023/03/09 07:08:48;;;;;;;34.65;21.42;;;3.90;99.90;;;;;;5092579;28;20343;-60
2023/03/09 07:11:14;;;;;;;33.40;21.90;;;3.90;99.90;;;;;;5092402;28;20218;-60
2023/03/09 07:13:39;;;;;;;36.55;22.77;;;3.90;99.90;;;;;;5092449;28;20197;-61
2023/03/09 07:16:06;;;;;;;35.08;22.50;;;3.80;99.90;;;;;;5092466;28;20318;-61
2023/03/09 07:18:31;;;;;;;33.80;22.85;;;3.80;99.90;;;;;;5092342;28;20192;-60
2023/03/09 07:21:01;;;;;;;42.78;35.42;;;3.80;99.90;;;;;;5092088;28;20206;-60
2023/03/09 07:23:29;;;;;;;260.75;145.30;;;3.80;99.90;;;;;;5096283;28;20232;-61
2023/03/09 07:25:59;;;;;;;183.13;102.05;;;3.90;99.90;;;;;;5096482;28;20648;-61
2023/03/09 07:28:25;;;;;;;38.90;24.73;;;3.90;99.90;;;;;;5096719;28;20169;-61
2023/03/09 07:30:50;;;;;;;36.92;23.70;;;4.00;99.90;;;;;;5095237;28;20665;-61
2023/03/09 07:33:16;;;;;;;34.55;22.60;;;4.00;99.90;;;;;;5096465;28;20208;-62
2023/03/09 07:35:42;;;;;;;33.65;23.35;;;3.90;99.90;;;;;;5096219;28;20173;-61
2023/03/09 07:38:07;;;;;;;35.03;22.67;;;4.10;99.90;;;;;;5096491;28;20299;-61
2023/03/09 07:40:33;;;;;;;36.22;23.60;;;4.10;99.90;;;;;;5096205;28;20188;-61
2023/03/09 07:42:59;;;;;;;37.17;23.95;;;4.20;99.90;;;;;;5096218;28;20180;-60
2023/03/09 07:45:25;;;;;;;35.08;24.13;;;4.20;99.90;;;;;;5096140;28;20176;-61
2023/03/09 07:47:50;;;;;;;39.83;25.02;;;4.30;99.90;;;;;;5096448;28;20176;-60
2023/03/09 07:50:18;;;;;;;41.33;25.38;;;4.40;99.90;;;;;;5096193;28;20204;-61
2023/03/09 07:52:43;;;;;;;39.67;25.00;;;4.50;99.90;;;;;;5096459;28;20238;-60
2023/03/09 07:55:11;;;;;;;38.42;24.33;;;4.60;99.90;;;;;;5096225;28;20177;-61
2023/03/09 07:57:38;;;;;;;35.47;24.50;;;4.70;99.90;;;;;;5094894;28;20223;-60
2023/03/09 08:00:12;;;;;;;39.08;26.08;;;4.80;99.90;;;;;;5096143;28;20240;-61
2023/03/09 08:02:41;;;;;;;38.13;25.33;;;4.80;99.90;;;;;;5095957;28;20231;-61
2023/03/09 08:05:08;;;;;;;37.22;24.50;;;4.90;99.90;;;;;;5095971;28;20222;-60
2023/03/09 08:07:35;;;;;;;37.08;24.85;;;4.90;99.90;;;;;;5095835;28;20176;-61
2023/03/09 08:10:00;;;;;;;35.83;25.23;;;5.00;99.90;;;;;;5095660;28;20178;-61
2023/03/09 08:12:26;;;;;;;34.88;25.35;;;5.10;99.90;;;;;;5095597;28;20192;-61
2023/03/09 08:14:52;;;;;;;37.53;25.02;;;5.20;99.90;;;;;;5095446;28;20266;-61
2023/03/09 08:17:18;;;;;;;36.33;25.13;;;5.30;99.90;;;;;;5095521;28;20554;-61
2023/03/09 08:19:44;;;;;;;34.78;24.80;;;5.40;99.90;;;;;;5095304;28;20264;-61
2023/03/09 08:22:10;;;;;;;32.97;23.77;;;5.50;99.90;;;;;;5095180;28;20344;-61
2023/03/09 08:24:36;;;;;;;34.63;23.30;;;5.50;99.90;;;;;;5095339;28;20175;-61
2023/03/09 08:27:01;;;;;;;31.83;22.55;;;5.40;99.90;;;;;;5095483;28;20223;-60
2023/03/09 08:29:27;;;;;;;32.92;23.23;;;5.50;99.90;;;;;;5077004;28;20181;-61
2023/03/09 08:31:52;;;;;;;32.05;23.33;;;5.50;99.90;;;;;;5094910;28;20185;-61
2023/03/09 08:34:19;;;;;;;31.02;21.27;;;5.60;99.90;;;;;;5094811;28;20206;-61
2023/03/09 08:36:45;;;;;;;33.15;21.80;;;5.70;99.90;;;;;;5095223;28;20173;-60
2023/03/09 08:39:11;;;;;;;32.55;24.25;;;5.80;99.90;;;;;;5095183;28;20243;-61
2023/03/09 08:41:37;;;;;;;34.08;24.10;;;5.90;99.90;;;;;;5095269;28;20198;-62
2023/03/09 08:44:03;;;;;;;35.13;24.45;;;6.00;99.90;;;;;;5093970;28;20178;-61
2023/03/09 08:46:28;;;;;;;36.92;24.60;;;6.00;99.90;;;;;;5094974;28;20173;-61
2023/03/09 08:48:56;;;;;;;35.83;25.15;;;6.00;99.90;;;;;;5094983;28;20178;-61
2023/03/09 08:51:22;;;;;;;36.92;25.65;;;6.00;99.90;;;;;;5095090;28;20272;-59
2023/03/09 08:53:48;;;;;;;35.42;24.50;;;6.10;99.90;;;;;;5095053;28;20177;-59
2023/03/09 08:56:14;;;;;;;33.78;28.42;;;6.10;99.90;;;;;;5094985;28;20180;-59
2023/03/09 08:58:40;;;;;;;32.95;23.52;;;6.20;99.90;;;;;;5094801;28;20261;-60
2023/03/09 09:01:09;;;;;;;34.97;23.52;;;6.30;99.90;;;;;;5094750;28;20198;-60
2023/03/09 09:03:35;;;;;;;33.85;25.75;;;6.30;99.90;;;;;;5094961;28;20440;-59
2023/03/09 09:06:09;;;;;;;34.97;28.40;;;6.30;99.90;;;;;;5094836;28;20183;-59
2023/03/09 09:08:36;;;;;;;33.60;23.77;;;6.20;99.90;;;;;;5094932;28;20168;-60
2023/03/09 09:11:10;;;;;;;33.53;26.83;;;6.20;99.90;;;;;;5094869;28;20178;-60
2023/03/09 09:13:37;;;;;;;31.70;23.75;;;6.20;99.90;;;;;;5094667;28;20278;-60
2023/03/09 09:16:05;;;;;;;30.25;21.63;;;6.20;99.90;;;;;;5094520;28;20227;-60
2023/03/09 09:18:32;;;;;;;28.15;23.95;;;6.20;99.90;;;;;;5094581;28;20663;-60
2023/03/09 09:20:58;;;;;;;27.73;19.52;;;6.20;99.90;;;;;;5094622;28;20292;-60
2023/03/09 09:23:24;;;;;;;24.98;19.95;;;6.10;99.90;;;;;;5094413;28;20236;-59
2023/03/09 09:25:56;;;;;;;29.02;22.67;;;6.20;99.90;;;;;;5094447;28;20174;-59
2023/03/09 09:28:23;;;;;;;27.92;23.85;;;6.20;99.90;;;;;;5094244;28;20173;-60
2023/03/09 09:30:56;;;;;;;28.80;21.15;;;6.20;99.90;;;;;;5094481;28;20206;-60
2023/03/09 09:33:23;;;;;;;29.00;22.55;;;6.20;99.90;;;;;;5094283;28;20174;-60
2023/03/09 09:35:59;;;;;;;30.23;22.98;;;6.10;99.90;;;;;;5094408;28;20200;-60
2023/03/09 09:38:26;;;;;;;29.77;21.75;;;6.10;99.90;;;;;;5093351;28;20176;-60
2023/03/09 09:40:54;;;;;;;31.58;22.73;;;6.20;99.90;;;;;;5093883;28;20170;-61
2023/03/09 09:43:22;;;;;;;33.85;23.33;;;6.30;99.90;;;;;;5094154;28;20166;-60
2023/03/09 09:45:49;;;;;;;33.97;24.42;;;6.40;99.90;;;;;;5093479;28;20196;-60
2023/03/09 09:48:17;;;;;;;30.98;23.20;;;6.40;99.90;;;;;;5094061;28;20250;-61
2023/03/09 09:50:55;;;;;;;32.90;24.20;;;6.50;99.90;;;;;;5093930;28;20195;-60
2023/03/09 09:53:34;;;;;;;34.92;24.20;;;6.50;99.90;;;;;;5093844;28;20169;-60
2023/03/09 09:56:01;;;;;;;32.03;22.83;;;6.50;99.90;;;;;;5093838;28;20177;-60
2023/03/09 09:58:40;;;;;;;30.48;26.17;;;6.50;99.90;;;;;;5093818;28;20252;-60
2023/03/09 10:01:34;;;;;;;35.08;27.83;;;6.40;99.90;;;;;;5093811;28;20203;-60
2023/03/09 10:04:07;;;;;;;32.22;22.58;;;6.50;99.90;;;;;;5086817;28;20541;-60
2023/03/09 10:06:33;;;;;;;32.60;22.80;;;6.50;99.90;;;;;;5093837;28;20211;-60
2023/03/09 10:09:06;;;;;;;32.85;23.00;;;6.50;99.90;;;;;;5093644;28;20213;-60
2023/03/09 10:11:35;;;;;;;33.17;27.33;;;6.40;99.90;;;;;;5093619;28;20177;-60
2023/03/09 10:14:16;;;;;;;38.58;25.88;;;6.60;99.90;;;;;;5093337;28;20179;-60
2023/03/09 10:16:48;;;;;;;35.53;28.42;;;6.50;99.90;;;;;;5093655;28;20252;-61
2023/03/09 10:19:22;;;;;;;38.40;26.20;;;6.60;99.90;;;;;;5093496;28;20177;-60
2023/03/09 10:22:03;;;;;;;36.13;24.52;;;6.60;99.90;;;;;;5093159;28;20288;-59
2023/03/09 10:24:36;;;;;;;33.00;26.50;;;6.60;99.90;;;;;;5093196;28;20654;-60
2023/03/09 10:27:16;;;;;;;35.72;24.25;;;6.60;99.90;;;;;;5093462;28;20218;-60
2023/03/09 10:30:02;;;;;;;36.55;23.30;;;6.70;99.90;;;;;;5093400;28;20195;-60
2023/03/09 10:32:57;;;;;;;36.53;25.70;;;6.60;99.90;;;;;;5093180;28;20531;-60
2023/03/09 10:35:34;;;;;;;36.65;24.50;;;6.70;99.90;;;;;;5093189;28;20226;-60
2023/03/09 10:38:00;;;;;;;38.13;26.60;;;6.80;99.90;;;;;;5093340;28;20226;-60
2023/03/09 10:40:30;;;;;;;37.42;29.27;;;6.80;99.90;;;;;;5092993;28;20180;-60
2023/03/09 10:42:58;;;;;;;40.03;31.17;;;6.80;99.90;;;;;;5092889;28;20205;-60
2023/03/09 10:45:31;;;;;;;42.60;30.55;;;7.00;99.90;;;;;;5092791;28;20172;-60
2023/03/09 10:47:59;;;;;;;42.25;30.73;;;7.10;99.90;;;;;;5091679;28;20170;-60
2023/03/09 10:50:35;;;;;;;41.75;28.77;;;7.10;99.90;;;;;;5092975;28;20204;-60
2023/03/09 10:53:30;;;;;;;42.92;29.35;;;7.10;99.90;;;;;;5092967;28;20181;-60
2023/03/09 10:56:20;;;;;;;39.53;26.83;;;7.00;99.90;;;;;;5092643;28;20162;-60
2023/03/09 10:59:09;;;;;;;33.72;23.13;;;7.00;99.90;;;;;;5092870;28;20173;-60
2023/03/09 11:01:37;;;;;;;33.22;23.30;;;6.90;99.90;;;;;;5092727;28;20197;-60
2023/03/09 11:04:36;;;;;;;32.50;22.85;;;7.10;99.90;;;;;;5092748;28;20206;-61
2023/03/09 11:07:13;;;;;;;36.53;23.50;;;7.10;99.90;;;;;;5092887;28;20181;-60
2023/03/09 11:09:42;;;;;;;30.58;23.17;;;6.90;99.90;;;;;;5092694;28;20320;-60
2023/03/09 11:12:07;;;;;;;31.70;25.42;;;6.90;99.90;;;;;;5092814;28;20177;-61
2023/03/09 11:14:41;;;;;;;33.05;22.80;;;7.00;99.90;;;;;;5092648;28;20226;-61
2023/03/09 11:17:34;;;;;;;35.42;22.63;;;7.10;99.90;;;;;;5092926;28;20694;-61
2023/03/09 11:20:12;;;;;;;30.05;22.02;;;7.10;99.90;;;;;;5092812;28;20184;-60
2023/03/09 11:23:07;;;;;;;28.77;21.17;;;7.00;99.90;;;;;;5092305;28;20714;-61
2023/03/09 11:25:57;;;;;;;28.13;22.73;;;6.90;99.90;;;;;;5092470;28;20635;-61
2023/03/09 11:28:25;;;;;;;28.52;23.27;;;6.90;99.90;;;;;;5092681;28;20668;-60
2023/03/09 11:30:54;;;;;;;30.77;20.08;;;6.90;99.90;;;;;;5092413;28;20177;-61
2023/03/09 11:33:20;;;;;;;25.55;21.80;;;6.90;99.90;;;;;;5092382;28;20739;-61
2023/03/09 11:35:50;;;;;;;47.58;42.47;;;6.80;99.90;;;;;;5092692;28;20245;-61
2023/03/09 11:38:19;;;;;;;41.80;28.45;;;6.70;99.90;;;;;;5092629;28;20525;-61
2023/03/09 11:40:48;;;;;;;29.25;22.20;;;6.50;99.90;;;;;;5092410;28;20169;-61
2023/03/09 11:43:23;;;;;;;34.30;23.17;;;6.50;99.90;;;;;;5092396;28;20174;-60
2023/03/09 11:45:51;;;;;;;29.17;21.25;;;6.70;99.90;;;;;;5092196;28;20649;-61
2023/03/09 11:48:31;;;;;;;30.15;20.58;;;6.50;99.90;;;;;;5092378;28;20185;-61
2023/03/09 11:51:11;;;;;;;27.00;19.48;;;6.60;99.90;;;;;;5092370;28;20173;-61
2023/03/09 11:53:50;;;;;;;30.60;20.92;;;6.60;99.90;;;;;;5092464;28;20176;-61
2023/03/09 11:56:18;;;;;;;28.75;20.95;;;6.80;99.90;;;;;;5092161;28;20166;-61
2023/03/09 11:58:51;;;;;;;31.15;20.95;;;6.80;99.90;;;;;;5092284;28;20162;-60
2023/03/09 12:01:38;;;;;;;30.67;24.02;;;6.80;99.90;;;;;;5091954;28;20675;-61
2023/03/09 12:04:06;;;;;;;26.48;18.73;;;6.90;99.90;;;;;;5092064;28;20181;-61
2023/03/09 12:07:16;;;;;;;31.20;20.80;;;6.70;99.90;;;;;;5091856;28;20181;-61
2023/03/09 12:09:59;;;;;;;25.95;18.38;;;6.60;99.90;;;;;;5095973;28;20177;-61
2023/03/09 12:12:43;;;;;;;22.80;17.48;;;6.50;99.90;;;;;;5096395;28;20183;-61
2023/03/09 12:15:46;;;;;;;20.63;15.70;;;6.70;99.90;;;;;;5096217;28;20204;-60
2023/03/09 12:18:29;;;;;;;22.80;17.35;;;6.90;99.90;;;;;;5080828;28;20184;-61
2023/03/09 12:21:07;;;;;;;23.35;16.52;;;6.90;99.90;;;;;;5096314;28;20177;-61
2023/03/09 12:23:35;;;;;;;25.00;20.58;;;6.90;99.90;;;;;;5095861;28;20228;-61
2023/03/09 12:26:04;;;;;;;26.50;19.60;;;6.60;99.90;;;;;;5096189;28;20166;-61
2023/03/09 12:28:30;;;;;;;24.23;20.33;;;6.70;99.90;;;;;;5095958;28;20169;-61
2023/03/09 12:30:57;;;;;;;23.63;17.95;;;6.90;99.90;;;;;;5096010;28;20269;-61
2023/03/09 12:33:46;;;;;;;24.65;18.48;;;7.00;99.90;;;;;;5095892;28;20173;-61
2023/03/09 12:36:28;;;;;;;30.48;23.85;;;7.00;99.90;;;;;;5089920;28;20555;-61
2023/03/09 12:39:22;;;;;;;23.70;19.98;;;7.00;99.90;;;;;;5095806;28;20226;-61
2023/03/09 12:41:55;;;;;;;24.70;18.08;;;7.00;99.90;;;;;;5095624;28;20678;-60
2023/03/09 12:44:42;;;;;;;25.73;20.40;;;7.20;99.90;;;;;;5095591;28;20250;-60
2023/03/09 12:47:22;;;;;;;26.30;20.38;;;7.40;99.90;;;;;;5095800;28;20173;-61